createdAt,value
2023-04-18T00:00:21.820Z,8.69
2023-04-18T00:05:47.292Z,8.62
2023-04-18T00:10:50.217Z,8.59
2023-04-18T00:15:54.219Z,8.56
2023-04-18T00:20:56.991Z,8.54
2023-04-18T00:26:00.012Z,8.47
2023-04-18T00:31:03.546Z,8.38
2023-04-18T00:36:06.627Z,8.31
2023-04-18T00:41:09.416Z,8.27
2023-04-18T00:46:12.175Z,8.26
2023-04-18T00:51:15.692Z,8.25
2023-04-18T00:56:19.340Z,8.20
2023-04-18T01:01:22.237Z,8.13
2023-04-18T01:06:27.528Z,8.04
2023-04-18T01:11:30.476Z,7.98
2023-04-18T01:16:34.658Z,7.96
2023-04-18T01:22:00.548Z,7.97
2023-04-18T01:27:03.485Z,7.95
2023-04-18T01:32:07.067Z,7.90
2023-04-18T01:37:09.781Z,7.86
2023-04-18T01:42:12.526Z,7.85
2023-04-18T01:47:15.251Z,7.88
2023-04-18T01:52:18.271Z,7.94
2023-04-18T01:57:21.114Z,7.96
2023-04-18T02:02:24.021Z,7.94
2023-04-18T02:07:26.997Z,7.91
2023-04-18T02:12:29.703Z,7.93
2023-04-18T02:17:32.425Z,7.97
2023-04-18T02:22:38.234Z,8.00
2023-04-18T02:27:41.262Z,8.03
2023-04-18T02:32:44.080Z,7.99
2023-04-18T02:37:46.908Z,7.94
2023-04-18T02:42:49.609Z,7.92
2023-04-18T02:47:55.856Z,7.94
2023-04-18T02:53:00.157Z,7.97
2023-04-18T02:58:03.330Z,7.96
2023-04-18T03:03:06.227Z,7.92
2023-04-18T03:08:09.268Z,7.89
2023-04-18T03:13:12.154Z,7.88
2023-04-18T03:18:14.915Z,7.90
2023-04-18T03:23:17.661Z,7.94
2023-04-18T03:28:20.473Z,7.94
2023-04-18T03:33:23.957Z,7.92
2023-04-18T03:38:26.782Z,7.90
2023-04-18T03:43:29.528Z,7.92
2023-04-18T03:48:35.856Z,7.92
2023-04-18T03:53:38.653Z,7.90
2023-04-18T03:58:41.372Z,7.85
2023-04-18T04:03:44.278Z,7.80
2023-04-18T04:08:47.124Z,7.76
2023-04-18T04:13:49.955Z,7.80
2023-04-18T04:18:52.753Z,7.84
2023-04-18T04:23:55.479Z,7.86
2023-04-18T04:28:58.389Z,7.87
2023-04-18T04:34:01.784Z,7.85
2023-04-18T04:39:05.378Z,7.89
2023-04-18T04:44:10.362Z,7.97
2023-04-18T04:49:13.109Z,8.11
2023-04-18T04:54:16.302Z,8.23
2023-04-18T04:59:19.618Z,8.29
2023-04-18T05:04:22.495Z,8.39
2023-04-18T05:09:26.180Z,8.55
2023-04-18T05:14:28.893Z,8.70
2023-04-18T05:19:31.590Z,8.79
2023-04-18T05:24:34.258Z,8.80
2023-04-18T05:29:36.920Z,8.81
2023-04-18T05:34:39.646Z,8.86
2023-04-18T05:39:42.484Z,8.97
2023-04-18T05:44:45.162Z,9.11
2023-04-18T05:49:47.868Z,9.25
2023-04-18T05:54:51.181Z,9.32
2023-04-18T05:59:54.113Z,9.40
2023-04-18T06:04:57.564Z,9.47
2023-04-18T06:10:00.545Z,9.46
2023-04-18T06:15:05.278Z,9.41
2023-04-18T06:20:10.056Z,9.42
2023-04-18T06:25:12.871Z,9.53
2023-04-18T06:30:15.799Z,9.74
2023-04-18T06:35:18.752Z,9.89
2023-04-18T06:40:21.538Z,10.04
2023-04-18T06:45:24.616Z,10.43
2023-04-18T06:50:30.664Z,10.88
2023-04-18T06:55:33.943Z,11.32
2023-04-18T07:00:42.079Z,11.75
2023-04-18T07:05:50.967Z,12.09
2023-04-18T07:10:53.840Z,12.45
2023-04-18T07:15:56.835Z,12.74
2023-04-18T07:20:59.534Z,13.02
2023-04-18T07:26:03.178Z,13.34
2023-04-18T07:31:09.112Z,13.57
2023-04-18T07:36:12.317Z,13.72
2023-04-18T07:41:15.717Z,13.97
2023-04-18T07:46:19.011Z,14.24
2023-04-18T07:51:22.203Z,14.49
2023-04-18T07:56:25.976Z,14.59
2023-04-18T08:01:28.737Z,14.71
2023-04-18T08:06:31.535Z,14.91
2023-04-18T08:11:35.186Z,15.04
2023-04-18T08:16:39.536Z,15.28
2023-04-18T08:21:42.217Z,15.31
2023-04-18T08:26:45.114Z,15.53
2023-04-18T08:31:50.525Z,15.63
2023-04-18T08:37:04.674Z,15.77
2023-04-18T08:42:24.531Z,15.98
2023-04-18T08:47:31.402Z,16.20
2023-04-18T08:52:36.173Z,16.54
2023-04-18T08:57:39.879Z,16.85
2023-04-18T09:02:43.118Z,17.20
2023-04-18T09:07:50.464Z,17.45
2023-04-18T09:12:53.223Z,17.71
2023-04-18T09:17:58.821Z,17.92
2023-04-18T09:23:04.385Z,18.11
2023-04-18T09:28:24.037Z,18.28
2023-04-18T09:33:35.293Z,18.59
2023-04-18T09:38:41.235Z,18.90
2023-04-18T09:43:48.207Z,19.24
2023-04-18T09:48:54.129Z,19.53
2023-04-18T09:53:59.733Z,19.81
2023-04-18T09:59:10.310Z,20.06
2023-04-18T10:04:17.621Z,20.24
2023-04-18T10:09:21.225Z,20.51
2023-04-18T10:14:25.039Z,20.82
2023-04-18T10:19:30.044Z,21.08
2023-04-18T10:24:54.266Z,21.29
2023-04-18T10:29:57.107Z,21.56
2023-04-18T10:35:00.700Z,21.73
2023-04-18T10:40:06.976Z,21.57
2023-04-18T10:45:19.843Z,21.03
2023-04-18T10:50:24.057Z,20.68
2023-04-18T10:55:29.373Z,20.89
2023-04-18T11:00:32.631Z,21.21
2023-04-18T11:05:35.683Z,21.25
2023-04-18T11:10:38.929Z,21.48
2023-04-18T11:15:41.764Z,21.79
2023-04-18T11:20:49.703Z,22.13
2023-04-18T11:25:56.476Z,22.52
2023-04-18T11:31:02.904Z,22.72
2023-04-18T11:36:06.965Z,22.59
2023-04-18T11:41:16.410Z,22.38
2023-04-18T11:46:19.253Z,22.63
2023-04-18T11:51:35.869Z,22.57
2023-04-18T11:56:48.433Z,22.08
2023-04-18T12:02:15.499Z,21.61
2023-04-18T12:07:42.469Z,21.49
2023-04-18T12:12:50.242Z,21.39
2023-04-18T12:17:58.496Z,21.26
2023-04-18T12:23:02.443Z,21.20
2023-04-18T12:28:15.830Z,21.08
2023-04-18T12:33:19.553Z,20.86
2023-04-18T12:38:23.718Z,20.62
2023-04-18T12:43:29.733Z,20.51
2023-04-18T12:48:32.530Z,20.45
2023-04-18T12:53:35.239Z,20.41
2023-04-18T12:58:37.991Z,20.46
2023-04-18T13:03:41.329Z,20.68
2023-04-18T13:08:45.270Z,21.07
2023-04-18T13:13:48.001Z,21.37
2023-04-18T13:18:51.015Z,21.12
2023-04-18T13:23:53.938Z,20.63
2023-04-18T13:28:57.783Z,20.17
2023-04-18T13:34:00.718Z,19.78
2023-04-18T13:39:05.205Z,19.46
2023-04-18T13:44:08.724Z,19.15
2023-04-18T13:49:11.589Z,18.82
2023-04-18T13:54:16.504Z,18.61
2023-04-18T13:59:19.587Z,18.44
2023-04-18T14:04:22.893Z,18.27
2023-04-18T14:09:26.929Z,18.11
2023-04-18T14:14:29.973Z,17.99
2023-04-18T14:19:33.185Z,17.82
2023-04-18T14:24:36.526Z,17.73
2023-04-18T14:29:39.328Z,17.68
2023-04-18T14:34:42.852Z,17.73
2023-04-18T14:39:46.213Z,17.83
2023-04-18T14:44:48.931Z,17.71
2023-04-18T14:49:51.737Z,17.44
2023-04-18T14:54:54.469Z,17.19
2023-04-18T14:59:57.300Z,17.00
2023-04-18T15:05:00.534Z,16.83
2023-04-18T15:10:05.017Z,16.63
2023-04-18T15:15:08.159Z,16.52
2023-04-18T15:20:11.310Z,16.41
2023-04-18T15:25:16.528Z,16.27
2023-04-18T15:30:20.025Z,16.04
2023-04-18T15:35:23.094Z,15.84
2023-04-18T15:40:26.298Z,15.72
2023-04-18T15:45:29.025Z,15.56
2023-04-18T15:50:33.534Z,15.43
2023-04-18T15:55:36.613Z,15.32
2023-04-18T16:00:40.011Z,15.25
2023-04-18T16:05:43.032Z,15.18
2023-04-18T16:10:46.245Z,15.12
2023-04-18T16:15:49.093Z,15.08
2023-04-18T16:20:52.211Z,15.01
2023-04-18T16:25:59.745Z,14.96
2023-04-18T16:31:02.470Z,14.87
2023-04-18T16:36:09.019Z,14.74
2023-04-18T16:41:12.246Z,14.63
2023-04-18T16:46:15.608Z,14.55
2023-04-18T16:51:18.557Z,14.46
2023-04-18T16:56:21.355Z,14.38
2023-04-18T17:01:24.184Z,14.32
2023-04-18T17:06:27.333Z,14.24
2023-04-18T17:11:32.261Z,14.17
2023-04-18T17:16:41.474Z,14.15
2023-04-18T17:21:45.461Z,14.06
2023-04-18T17:26:49.026Z,13.97
2023-04-18T17:31:54.001Z,13.89
2023-04-18T17:36:56.963Z,13.82
2023-04-18T17:42:01.076Z,13.71
2023-04-18T17:47:03.814Z,13.61
2023-04-18T17:52:06.721Z,13.53
2023-04-18T17:57:09.560Z,13.45
2023-04-18T18:02:12.357Z,13.34
2023-04-18T18:07:15.679Z,13.20
2023-04-18T18:12:20.845Z,13.06
2023-04-18T18:17:23.813Z,12.93
2023-04-18T18:22:27.006Z,12.83
2023-04-18T18:27:29.962Z,12.75
2023-04-18T18:32:32.915Z,12.64
2023-04-18T18:37:35.752Z,12.55
2023-04-18T18:42:39.031Z,12.40
2023-04-18T18:47:42.051Z,12.28
2023-04-18T18:52:45.186Z,12.20
2023-04-18T18:57:47.889Z,12.09
2023-04-18T19:02:50.730Z,11.99
2023-04-18T19:07:53.500Z,11.96
2023-04-18T19:12:56.594Z,11.96
2023-04-18T19:18:00.587Z,11.95
2023-04-18T19:23:04.505Z,11.95
2023-04-18T19:28:07.286Z,11.90
2023-04-18T19:33:10.554Z,11.83
2023-04-18T19:38:17.208Z,11.72
2023-04-18T19:43:20.044Z,11.55
2023-04-18T19:48:22.779Z,11.40
2023-04-18T19:53:26.324Z,11.21
2023-04-18T19:58:34.171Z,11.01
2023-04-18T20:03:37.079Z,10.84
2023-04-18T20:08:47.403Z,10.68
2023-04-18T20:13:52.272Z,10.52
2023-04-18T20:18:57.228Z,10.31
2023-04-18T20:24:00.027Z,10.08
2023-04-18T20:29:04.321Z,9.89
2023-04-18T20:34:07.428Z,9.68
2023-04-18T20:39:10.239Z,9.50
2023-04-18T20:44:13.842Z,9.38
2023-04-18T20:49:16.836Z,9.24
2023-04-18T20:54:19.794Z,9.14
2023-04-18T20:59:22.527Z,9.01
2023-04-18T21:04:25.379Z,8.90
2023-04-18T21:09:28.212Z,8.87
2023-04-18T21:14:31.490Z,8.87
2023-04-18T21:19:34.735Z,8.86
2023-04-18T21:24:39.034Z,8.85
2023-04-18T21:29:42.359Z,8.80
2023-04-18T21:34:45.025Z,8.78
2023-04-18T21:40:09.571Z,8.77
2023-04-18T21:45:12.418Z,8.72
2023-04-18T21:50:16.103Z,8.64
2023-04-18T21:55:18.911Z,8.50
2023-04-18T22:00:21.767Z,8.37
2023-04-18T22:05:26.353Z,8.22
2023-04-18T22:10:29.106Z,8.08
2023-04-18T22:15:32.408Z,7.93
2023-04-18T22:20:38.973Z,7.85
2023-04-18T22:25:41.911Z,7.91
2023-04-18T22:30:45.947Z,8.02
2023-04-18T22:35:49.096Z,8.00
2023-04-18T22:40:51.925Z,7.90
2023-04-18T22:45:54.700Z,7.83
2023-04-18T22:50:57.432Z,7.73
2023-04-18T22:56:00.152Z,7.62
2023-04-18T23:01:03.156Z,7.47
2023-04-18T23:06:08.097Z,7.37
2023-04-18T23:11:11.221Z,7.25
2023-04-18T23:16:14.020Z,7.21
2023-04-18T23:21:17.482Z,7.27
2023-04-18T23:26:21.054Z,7.30
2023-04-18T23:31:23.912Z,7.31
2023-04-18T23:36:27.337Z,7.26
2023-04-18T23:41:30.085Z,7.22
2023-04-18T23:46:34.384Z,7.16
2023-04-18T23:51:39.108Z,7.09
2023-04-18T23:56:41.793Z,6.98
